FIMR

Sir Charles Gaetan Duval Airport

Port Mathurin, Mauritius
METAR FIMR 231400Z 12022KT 9999 SCT017 24/18 Q1019
Observed Flight Rules
May-23 @ 14:00 UTC (an hour ago) Visual Flight Rules
Wind Visibility Clouds
120° at 22 knots 10,000+ meters
  • Scattered at 1,700' AGL
Temperatures Readings
Current 24°C / 75°F
Dewpoint 18°C / 64°F
Humidity 69%
Altimeter 30.09" Hg
Pressure 1019 hPa
Elevation 31
METAR FIMR 231400Z 12022KT 9999 SCT017 24/18 Q1019
Observed Flight Rules
May-23 @ 14:00 UTC
(an hour ago)
VFR
Wind Visibility
120° at 22 knots 10,000+ meters
Clouds
  • Scattered at 1,700' AGL
Temperature Dewpoint
24°C / 75°F 18°C / 64°F
Humidity Altimeter Pressure
69% 30.09" Hg 1019 hPa